Terminal Aerodrome Forecast
Issued by NWS Pocatello, ID

Home | Current Version | Previous Version | Text Only | Print | Product List | Glossary On
Versions: 1 2 3 4 5 6 7 8 9 10 11 12 13 14 15 16 17 18
000
FTUS45 KPIH 240500
TAFIDA
TAF
KIDA 240528Z 2406/2506 21018G23KT P6SM VCSH SCT015 OVC090
     FM240900 22015KT P6SM SCT015
     FM241600 21009KT P6SM SCT015=

USA.gov is the U.S. government's official web portal to all federal, state and local government web resources and services.